sensor_id;sensor_type;location;lat;lon;timestamp;pressure;altitude;pressure_sealevel;temperature;humidity
36354;BME280;22383;51.114;13.666;2023-04-28T00:01:11;67604.50;;;3.73;100.00
36354;BME280;22383;51.114;13.666;2023-04-28T00:03:38;67598.28;;;3.67;100.00
36354;BME280;22383;51.114;13.666;2023-04-28T00:06:06;67586.81;;;3.54;100.00
36354;BME280;22383;51.114;13.666;2023-04-28T00:08:33;67578.16;;;3.44;100.00
36354;BME280;22383;51.114;13.666;2023-04-28T00:11:00;67595.63;;;3.60;100.00
36354;BME280;22383;51.114;13.666;2023-04-28T00:13:27;67586.81;;;3.54;100.00
36354;BME280;22383;51.114;13.666;2023-04-28T00:15:54;67574.97;;;3.44;100.00
36354;BME280;22383;51.114;13.666;2023-04-28T00:18:22;67572.72;;;3.41;100.00
36354;BME280;22383;51.114;13.666;2023-04-28T00:20:49;67560.09;;;3.28;100.00
36354;BME280;22383;51.114;13.666;2023-04-28T00:23:16;67556.75;;;3.25;100.00
36354;BME280;22383;51.114;13.666;2023-04-28T00:25:43;67559.00;;;3.27;100.00
36354;BME280;22383;51.114;13.666;2023-04-28T00:28:10;67549.25;;;3.22;100.00
36354;BME280;22383;51.114;13.666;2023-04-28T00:30:44;67554.13;;;3.25;100.00
36354;BME280;22383;51.114;13.666;2023-04-28T00:33:12;67556.56;;;3.29;100.00
36354;BME280;22383;51.114;13.666;2023-04-28T00:35:39;67553.56;;;3.24;100.00
36354;BME280;22383;51.114;13.666;2023-04-28T00:38:08;67544.91;;;3.14;100.00
36354;BME280;22383;51.114;13.666;2023-04-28T00:40:36;67534.06;;;3.09;100.00
36354;BME280;22383;51.114;13.666;2023-04-28T00:43:03;67529.88;;;3.02;100.00
36354;BME280;22383;51.114;13.666;2023-04-28T00:45:31;67540.03;;;3.12;100.00
36354;BME280;22383;51.114;13.666;2023-04-28T00:47:58;67537.00;;;3.07;100.00
36354;BME280;22383;51.114;13.666;2023-04-28T00:50:27;67523.69;;;2.97;100.00
36354;BME280;22383;51.114;13.666;2023-04-28T00:52:54;67518.63;;;2.92;100.00
36354;BME280;22383;51.114;13.666;2023-04-28T00:55:23;67462.00;;;2.83;100.00
36354;BME280;22383;51.114;13.666;2023-04-28T00:57:50;67517.84;;;2.89;100.00
36354;BME280;22383;51.114;13.666;2023-04-28T01:00:17;67506.44;;;2.83;100.00
36354;BME280;22383;51.114;13.666;2023-04-28T01:02:44;67511.88;;;2.86;100.00
36354;BME280;22383;51.114;13.666;2023-04-28T01:05:12;67509.63;;;2.84;100.00
36354;BME280;22383;51.114;13.666;2023-04-28T01:07:41;67511.28;;;2.86;100.00
36354;BME280;22383;51.114;13.666;2023-04-28T01:10:08;67458.44;;;2.78;100.00
36354;BME280;22383;51.114;13.666;2023-04-28T01:12:35;67454.69;;;2.77;100.00
36354;BME280;22383;51.114;13.666;2023-04-28T01:15:03;67497.22;;;2.73;100.00
36354;BME280;22383;51.114;13.666;2023-04-28T01:17:31;67498.34;;;2.74;100.00
36354;BME280;22383;51.114;13.666;2023-04-28T01:19:58;67495.53;;;2.71;100.00
36354;BME280;22383;51.114;13.666;2023-04-28T01:22:25;67455.06;;;2.75;100.00
36354;BME280;22383;51.114;13.666;2023-04-28T01:24:53;67488.19;;;2.64;100.00
36354;BME280;22383;51.114;13.666;2023-04-28T01:27:20;67438.38;;;2.62;100.00
36354;BME280;22383;51.114;13.666;2023-04-28T01:29:49;67494.41;;;2.70;100.00
36354;BME280;22383;51.114;13.666;2023-04-28T01:32:16;67503.03;;;2.80;100.00
36354;BME280;22383;51.114;13.666;2023-04-28T01:34:43;67518.63;;;2.92;100.00
36354;BME280;22383;51.114;13.666;2023-04-28T01:37:10;67475.53;;;2.96;100.00
36354;BME280;22383;51.114;13.666;2023-04-28T01:39:37;67508.47;;;2.83;100.00
36354;BME280;22383;51.114;13.666;2023-04-28T01:42:04;67496.66;;;2.72;100.00
36354;BME280;22383;51.114;13.666;2023-04-28T01:44:32;67483.91;;;2.63;100.00
36354;BME280;22383;51.114;13.666;2023-04-28T01:46:59;67474.91;;;2.55;100.00
36354;BME280;22383;51.114;13.666;2023-04-28T01:49:27;67433.13;;;2.55;100.00
36354;BME280;22383;51.114;13.666;2023-04-28T01:51:54;67473.00;;;2.51;100.00
36354;BME280;22383;51.114;13.666;2023-04-28T01:54:21;67464.91;;;2.41;100.00
36354;BME280;22383;51.114;13.666;2023-04-28T01:56:48;67460.06;;;2.39;100.00
36354;BME280;22383;51.114;13.666;2023-04-28T01:59:18;67458.72;;;2.35;100.00
36354;BME280;22383;51.114;13.666;2023-04-28T02:01:46;67452.38;;;2.34;100.00
36354;BME280;22383;51.114;13.666;2023-04-28T02:04:13;67450.25;;;2.27;100.00
36354;BME280;22383;51.114;13.666;2023-04-28T02:06:41;67445.41;;;2.25;100.00
36354;BME280;22383;51.114;13.666;2023-04-28T02:09:08;67447.66;;;2.27;100.00
36354;BME280;22383;51.114;13.666;2023-04-28T02:11:35;67397.31;;;2.24;100.00
36354;BME280;22383;51.114;13.666;2023-04-28T02:14:03;67444.06;;;2.22;100.00
36354;BME280;22383;51.114;13.666;2023-04-28T02:16:31;67447.44;;;2.25;100.00
36354;BME280;22383;51.114;13.666;2023-04-28T02:18:59;67452.50;;;2.30;100.00
36354;BME280;22383;51.114;13.666;2023-04-28T02:21:27;67444.06;;;2.22;100.00
36354;BME280;22383;51.114;13.666;2023-04-28T02:23:54;67439.22;;;2.20;100.00
36354;BME280;22383;51.114;13.666;2023-04-28T02:26:22;67438.06;;;2.19;100.00
36354;BME280;22383;51.114;13.666;2023-04-28T02:28:50;67436.03;;;2.19;100.00
36354;BME280;22383;51.114;13.666;2023-04-28T02:31:17;67438.44;;;2.17;100.00
36354;BME280;22383;51.114;13.666;2023-04-28T02:33:45;67433.59;;;2.15;100.00
36354;BME280;22383;51.114;13.666;2023-04-28T02:36:12;67431.69;;;2.11;100.00
36354;BME280;22383;51.114;13.666;2023-04-28T02:38:40;67432.81;;;2.12;100.00
36354;BME280;22383;51.114;13.666;2023-04-28T02:41:07;67427.03;;;2.11;100.00
36354;BME280;22383;51.114;13.666;2023-04-28T02:43:35;67426.81;;;2.08;100.00
36354;BME280;22383;51.114;13.666;2023-04-28T02:46:03;67426.06;;;2.05;100.00
36354;BME280;22383;51.114;13.666;2023-04-28T02:48:33;67423.09;;;2.07;100.00
36354;BME280;22383;51.114;13.666;2023-04-28T02:51:02;67425.69;;;2.07;100.00
36354;BME280;22383;51.114;13.666;2023-04-28T02:53:30;67428.88;;;2.08;100.00
36354;BME280;22383;51.114;13.666;2023-04-28T02:55:58;67432.25;;;2.11;100.00
36354;BME280;22383;51.114;13.666;2023-04-28T02:58:28;67436.75;;;2.15;100.00
36354;BME280;22383;51.114;13.666;2023-04-28T03:00:55;67437.53;;;2.18;100.00
36354;BME280;22383;51.114;13.666;2023-04-28T03:03:23;67440.31;;;2.21;100.00
36354;BME280;22383;51.114;13.666;2023-04-28T03:05:51;67393.34;;;2.21;100.00
36354;BME280;22383;51.114;13.666;2023-04-28T03:08:18;67441.81;;;2.20;100.00
36354;BME280;22383;51.114;13.666;2023-04-28T03:10:46;67444.06;;;2.22;100.00
36354;BME280;22383;51.114;13.666;2023-04-28T03:13:13;67441.47;;;2.22;100.00
36354;BME280;22383;51.114;13.666;2023-04-28T03:15:42;67437.53;;;2.18;100.00
36354;BME280;22383;51.114;13.666;2023-04-28T03:18:09;67436.97;;;2.18;100.00
36354;BME280;22383;51.114;13.666;2023-04-28T03:20:38;67436.38;;;2.17;100.00
36354;BME280;22383;51.114;13.666;2023-04-28T03:23:05;67438.06;;;2.19;100.00
36354;BME280;22383;51.114;13.666;2023-04-28T03:25:34;67439.00;;;2.17;100.00
36354;BME280;22383;51.114;13.666;2023-04-28T03:28:02;67394.47;;;2.22;100.00
36354;BME280;22383;51.114;13.666;2023-04-28T03:30:29;67459.84;;;2.36;100.00
36354;BME280;22383;51.114;13.666;2023-04-28T03:32:56;67399.91;;;2.24;100.00
36354;BME280;22383;51.114;13.666;2023-04-28T03:35:24;67386.03;;;2.14;100.00
36354;BME280;22383;51.114;13.666;2023-04-28T03:37:51;67437.31;;;2.16;100.00
36354;BME280;22383;51.114;13.666;2023-04-28T03:40:18;67383.03;;;2.09;100.00
36354;BME280;22383;51.114;13.666;2023-04-28T03:43:14;67427.94;;;2.10;100.00
36354;BME280;22383;51.114;13.666;2023-04-28T03:46:17;67384.91;;;2.13;100.00
36354;BME280;22383;51.114;13.666;2023-04-28T03:48:45;67430.97;;;2.15;100.00
36354;BME280;22383;51.114;13.666;2023-04-28T03:51:13;67440.91;;;2.21;100.00
36354;BME280;22383;51.114;13.666;2023-04-28T03:53:40;67435.06;;;2.14;100.00
36354;BME280;22383;51.114;13.666;2023-04-28T03:56:07;67427.94;;;2.10;100.00
36354;BME280;22383;51.114;13.666;2023-04-28T03:58:34;67427.94;;;2.10;100.00
36354;BME280;22383;51.114;13.666;2023-04-28T04:01:02;67428.50;;;2.10;100.00
36354;BME280;22383;51.114;13.666;2023-04-28T04:03:29;67437.53;;;2.18;100.00
36354;BME280;22383;51.114;13.666;2023-04-28T04:05:57;67454.97;;;2.34;100.00
36354;BME280;22383;51.114;13.666;2023-04-28T04:08:24;67456.66;;;2.36;100.00
36354;BME280;22383;51.114;13.666;2023-04-28T04:10:52;67462.09;;;2.38;100.00
36354;BME280;22383;51.114;13.666;2023-04-28T04:13:22;67461.16;;;2.40;100.00
36354;BME280;22383;51.114;13.666;2023-04-28T04:15:51;67466.78;;;2.45;100.00
36354;BME280;22383;51.114;13.666;2023-04-28T04:18:23;67473.75;;;2.54;100.00
36354;BME280;22383;51.114;13.666;2023-04-28T04:21:08;67484.63;;;2.59;100.00
36354;BME280;22383;51.114;13.666;2023-04-28T04:23:36;67488.03;;;2.69;100.00
36354;BME280;22383;51.114;13.666;2023-04-28T04:26:03;67500.25;;;2.78;100.00
36354;BME280;22383;51.114;13.666;2023-04-28T04:28:31;67507.56;;;2.84;100.00
36354;BME280;22383;51.114;13.666;2023-04-28T04:30:58;67521.78;;;2.93;100.00
36354;BME280;22383;51.114;13.666;2023-04-28T04:33:25;67522.94;;;2.94;100.00
36354;BME280;22383;51.114;13.666;2023-04-28T04:35:53;67521.66;;;2.97;100.00
36354;BME280;22383;51.114;13.666;2023-04-28T04:38:20;67532.72;;;3.05;100.00
36354;BME280;22383;51.114;13.666;2023-04-28T04:40:48;67531.78;;;3.07;100.00
36354;BME280;22383;51.114;13.666;2023-04-28T04:43:15;67538.00;;;3.12;100.00
36354;BME280;22383;51.114;13.666;2023-04-28T04:45:46;67549.97;;;3.18;100.00
36354;BME280;22383;51.114;13.666;2023-04-28T04:48:14;67554.69;;;3.25;100.00
36354;BME280;22383;51.114;13.666;2023-04-28T04:50:41;67561.66;;;3.34;100.00
36354;BME280;22383;51.114;13.666;2023-04-28T04:53:09;67557.72;;;3.30;100.00
36354;BME280;22383;51.114;13.666;2023-04-28T04:55:42;67556.38;;;3.27;100.00
36354;BME280;22383;51.114;13.666;2023-04-28T04:58:10;67549.47;;;3.25;100.00
36354;BME280;22383;51.114;13.666;2023-04-28T05:00:56;67563.50;;;3.31;100.00
36354;BME280;22383;51.114;13.666;2023-04-28T05:03:23;67571.97;;;3.38;100.00
36354;BME280;22383;51.114;13.666;2023-04-28T05:05:50;67523.41;;;3.39;100.00
36354;BME280;22383;51.114;13.666;2023-04-28T05:08:31;67577.59;;;3.44;100.00
36354;BME280;22383;51.114;13.666;2023-04-28T05:10:58;67587.75;;;3.53;100.00
36354;BME280;22383;51.114;13.666;2023-04-28T05:13:26;67590.75;;;3.58;100.00
36354;BME280;22383;51.114;13.666;2023-04-28T05:15:58;67597.31;;;3.62;100.00
36354;BME280;22383;51.114;13.666;2023-04-28T05:18:41;67604.66;;;3.68;100.00
36354;BME280;22383;51.114;13.666;2023-04-28T05:21:09;67609.72;;;3.73;100.00
36354;BME280;22383;51.114;13.666;2023-04-28T05:23:37;67618.03;;;3.85;100.00
36354;BME280;22383;51.114;13.666;2023-04-28T05:26:04;67633.41;;;3.94;100.00
36354;BME280;22383;51.114;13.666;2023-04-28T05:28:32;67634.38;;;4.00;100.00
36354;BME280;22383;51.114;13.666;2023-04-28T05:31:00;67647.69;;;4.10;100.00
36354;BME280;22383;51.114;13.666;2023-04-28T05:33:30;67662.16;;;4.21;100.00
36354;BME280;22383;51.114;13.666;2023-04-28T05:35:58;67681.34;;;4.38;100.00
36354;BME280;22383;51.114;13.666;2023-04-28T05:38:25;67704.69;;;4.62;100.00
36354;BME280;22383;51.114;13.666;2023-04-28T05:40:54;67729.50;;;4.84;100.00
36354;BME280;22383;51.114;13.666;2023-04-28T05:43:22;67747.00;;;5.00;100.00
36354;BME280;22383;51.114;13.666;2023-04-28T05:45:49;67737.81;;;4.97;100.00
36354;BME280;22383;51.114;13.666;2023-04-28T05:48:17;67741.72;;;4.93;100.00
36354;BME280;22383;51.114;13.666;2023-04-28T05:50:44;67744.03;;;5.02;100.00
36354;BME280;22383;51.114;13.666;2023-04-28T05:53:11;67746.28;;;5.04;100.00
36354;BME280;22383;51.114;13.666;2023-04-28T05:55:39;67756.41;;;5.06;100.00
36354;BME280;22383;51.114;13.666;2023-04-28T05:58:06;67761.66;;;5.14;100.00
36354;BME280;22383;51.114;13.666;2023-04-28T06:00:34;67782.94;;;5.30;100.00
36354;BME280;22383;51.114;13.666;2023-04-28T06:03:01;67831.69;;;5.77;100.00
36354;BME280;22383;51.114;13.666;2023-04-28T06:05:29;67956.22;;;6.93;100.00
36354;BME280;22383;51.114;13.666;2023-04-28T06:07:59;68068.38;;;7.97;100.00
36354;BME280;22383;51.114;13.666;2023-04-28T06:10:26;68172.16;;;8.86;100.00
36354;BME280;22383;51.114;13.666;2023-04-28T06:12:53;68231.44;;;9.45;100.00
36354;BME280;22383;51.114;13.666;2023-04-28T06:15:21;68235.03;;;9.43;100.00
36354;BME280;22383;51.114;13.666;2023-04-28T06:17:48;68248.78;;;9.51;100.00
36354;BME280;22383;51.114;13.666;2023-04-28T06:20:15;68179.91;;;8.98;100.00
36354;BME280;22383;51.114;13.666;2023-04-28T06:22:43;68128.38;;;8.51;100.00
36354;BME280;22383;51.114;13.666;2023-04-28T06:25:10;68112.50;;;8.37;100.00
36354;BME280;22383;51.114;13.666;2023-04-28T06:27:43;68101.19;;;8.20;100.00
36354;BME280;22383;51.114;13.666;2023-04-28T06:30:16;68105.91;;;8.26;100.00
36354;BME280;22383;51.114;13.666;2023-04-28T06:32:45;68101.75;;;8.20;100.00
36354;BME280;22383;51.114;13.666;2023-04-28T06:35:13;68091.78;;;8.13;100.00
36354;BME280;22383;51.114;13.666;2023-04-28T06:37:40;68092.13;;;8.11;100.00
36354;BME280;22383;51.114;13.666;2023-04-28T06:40:09;68091.78;;;8.13;100.00
36354;BME280;22383;51.114;13.666;2023-04-28T06:42:39;68120.06;;;8.39;100.00
36354;BME280;22383;51.114;13.666;2023-04-28T06:45:10;68131.59;;;8.52;100.00
36354;BME280;22383;51.114;13.666;2023-04-28T06:47:37;68147.25;;;8.64;100.00
36354;BME280;22383;51.114;13.666;2023-04-28T06:50:08;68176.88;;;8.93;100.00
36354;BME280;22383;51.114;13.666;2023-04-28T06:52:36;68207.47;;;9.21;100.00
36354;BME280;22383;51.114;13.666;2023-04-28T06:55:08;68259.00;;;9.68;100.00
36354;BME280;22383;51.114;13.666;2023-04-28T06:57:37;68330.22;;;10.30;100.00
36354;BME280;22383;51.114;13.666;2023-04-28T07:00:05;68371.22;;;10.69;98.54
36354;BME280;22383;51.114;13.666;2023-04-28T07:02:32;68345.16;;;10.46;93.88
36354;BME280;22383;51.114;13.666;2023-04-28T07:04:59;68351.00;;;10.53;93.38
36354;BME280;22383;51.114;13.666;2023-04-28T07:07:26;68379.00;;;10.74;90.31
36354;BME280;22383;51.114;13.666;2023-04-28T07:09:54;68392.78;;;10.89;86.29
36354;BME280;22383;51.114;13.666;2023-04-28T07:12:21;68441.94;;;11.31;86.38
36354;BME280;22383;51.114;13.666;2023-04-28T07:14:49;68483.34;;;11.68;84.82
36354;BME280;22383;51.114;13.666;2023-04-28T07:17:17;68453.09;;;11.39;82.40
36354;BME280;22383;51.114;13.666;2023-04-28T07:19:48;68461.81;;;11.49;83.53
36354;BME280;22383;51.114;13.666;2023-04-28T07:22:18;68447.81;;;11.39;81.67
36354;BME280;22383;51.114;13.666;2023-04-28T07:24:49;68430.78;;;11.23;81.61
36354;BME280;22383;51.114;13.666;2023-04-28T07:27:18;68439.88;;;11.31;83.15
36354;BME280;22383;51.114;13.666;2023-04-28T07:29:47;68416.78;;;11.13;83.97
36354;BME280;22383;51.114;13.666;2023-04-28T07:32:17;68399.97;;;10.93;85.33
36354;BME280;22383;51.114;13.666;2023-04-28T07:34:44;68384.28;;;10.81;85.36
36354;BME280;22383;51.114;13.666;2023-04-28T07:37:13;68398.47;;;10.94;85.60
36354;BME280;22383;51.114;13.666;2023-04-28T07:39:42;68430.78;;;11.23;84.58
36354;BME280;22383;51.114;13.666;2023-04-28T07:42:09;68477.50;;;11.68;84.06
36354;BME280;22383;51.114;13.666;2023-04-28T07:44:37;68533.34;;;12.14;82.20
36354;BME280;22383;51.114;13.666;2023-04-28T07:47:04;68525.75;;;12.12;79.44
36354;BME280;22383;51.114;13.666;2023-04-28T07:49:32;68535.03;;;12.15;79.92
36354;BME280;22383;51.114;13.666;2023-04-28T07:51:59;68541.09;;;12.25;79.98
36354;BME280;22383;51.114;13.666;2023-04-28T07:54:29;68525.19;;;12.11;78.49
36354;BME280;22383;51.114;13.666;2023-04-28T07:56:57;68533.88;;;12.14;79.72
36354;BME280;22383;51.114;13.666;2023-04-28T07:59:24;68523.13;;;12.04;78.21
36354;BME280;22383;51.114;13.666;2023-04-28T08:01:51;68510.63;;;11.93;77.36
36354;BME280;22383;51.114;13.666;2023-04-28T08:04:26;68516.28;;;11.98;78.52
36354;BME280;22383;51.114;13.666;2023-04-28T08:06:54;68528.59;;;12.07;77.13
36354;BME280;22383;51.114;13.666;2023-04-28T08:09:22;68557.72;;;12.36;77.16
36354;BME280;22383;51.114;13.666;2023-04-28T08:11:49;68579.13;;;12.60;75.91
36354;BME280;22383;51.114;13.666;2023-04-28T08:14:16;68583.47;;;12.61;76.23
36354;BME280;22383;51.114;13.666;2023-04-28T08:16:44;68590.28;;;12.67;75.85
36354;BME280;22383;51.114;13.666;2023-04-28T08:19:13;68583.84;;;12.59;74.39
36354;BME280;22383;51.114;13.666;2023-04-28T08:21:40;68614.91;;;12.85;73.96
36354;BME280;22383;51.114;13.666;2023-04-28T08:24:10;68657.88;;;13.29;72.00
36354;BME280;22383;51.114;13.666;2023-04-28T08:26:37;68691.59;;;13.61;72.79
36354;BME280;22383;51.114;13.666;2023-04-28T08:29:05;68681.56;;;13.48;73.24
36354;BME280;22383;51.114;13.666;2023-04-28T08:31:32;68655.44;;;13.24;72.32
36354;BME280;22383;51.114;13.666;2023-04-28T08:34:00;68646.53;;;13.18;74.03
36354;BME280;22383;51.114;13.666;2023-04-28T08:36:33;68641.41;;;13.14;73.05
36354;BME280;22383;51.114;13.666;2023-04-28T08:39:01;68633.44;;;13.07;74.08
36354;BME280;22383;51.114;13.666;2023-04-28T08:41:40;68615.84;;;12.91;73.41
36354;BME280;22383;51.114;13.666;2023-04-28T08:44:08;68601.47;;;12.75;74.60
36354;BME280;22383;51.114;13.666;2023-04-28T08:46:40;68616.78;;;12.89;75.87
36354;BME280;22383;51.114;13.666;2023-04-28T08:49:15;68650.69;;;13.24;73.20
36354;BME280;22383;51.114;13.666;2023-04-28T08:51:55;68718.13;;;13.83;74.05
36354;BME280;22383;51.114;13.666;2023-04-28T08:54:32;68788.44;;;14.44;75.79
36354;BME280;22383;51.114;13.666;2023-04-28T08:57:07;68851.97;;;15.06;69.89
36354;BME280;22383;51.114;13.666;2023-04-28T08:59:41;68836.03;;;14.92;69.04
36354;BME280;22383;51.114;13.666;2023-04-28T09:02:11;68820.69;;;14.78;68.83
36354;BME280;22383;51.114;13.666;2023-04-28T09:04:39;68789.56;;;14.52;68.02
36354;BME280;22383;51.114;13.666;2023-04-28T09:07:19;68786.34;;;14.45;68.04
36354;BME280;22383;51.114;13.666;2023-04-28T09:09:49;68835.28;;;14.89;69.24
36354;BME280;22383;51.114;13.666;2023-04-28T09:12:19;68849.50;;;15.02;67.30
36354;BME280;22383;51.114;13.666;2023-04-28T09:14:57;68815.00;;;14.73;70.69
36354;BME280;22383;51.114;13.666;2023-04-28T09:17:24;68804.00;;;14.61;68.09
36354;BME280;22383;51.114;13.666;2023-04-28T09:19:52;68776.09;;;14.35;67.66
36354;BME280;22383;51.114;13.666;2023-04-28T09:22:27;68768.91;;;14.31;68.93
36354;BME280;22383;51.114;13.666;2023-04-28T09:24:56;68768.72;;;14.29;67.90
36354;BME280;22383;51.114;13.666;2023-04-28T09:27:27;68791.84;;;14.47;70.40
36354;BME280;22383;51.114;13.666;2023-04-28T09:29:56;68780.84;;;14.42;69.01
36354;BME280;22383;51.114;13.666;2023-04-28T09:32:27;68828.44;;;14.83;68.14
36354;BME280;22383;51.114;13.666;2023-04-28T09:34:56;68854.44;;;15.04;68.68
36354;BME280;22383;51.114;13.666;2023-04-28T09:37:28;68879.25;;;15.31;70.39
36354;BME280;22383;51.114;13.666;2023-04-28T09:40:08;68912.44;;;15.63;67.59
36354;BME280;22383;51.114;13.666;2023-04-28T09:43:05;68905.06;;;15.49;66.83
36354;BME280;22383;51.114;13.666;2023-04-28T09:45:50;68856.50;;;15.10;67.10
36354;BME280;22383;51.114;13.666;2023-04-28T09:48:37;68843.03;;;15.01;69.13
36354;BME280;22383;51.114;13.666;2023-04-28T09:51:08;68816.13;;;14.74;67.99
36354;BME280;22383;51.114;13.666;2023-04-28T09:53:38;68802.28;;;14.59;67.42
36354;BME280;22383;51.114;13.666;2023-04-28T09:56:13;68797.34;;;14.57;69.28
36354;BME280;22383;51.114;13.666;2023-04-28T09:58:45;68789.56;;;14.52;70.43
36354;BME280;22383;51.114;13.666;2023-04-28T10:01:16;68811.00;;;14.69;69.15
36354;BME280;22383;51.114;13.666;2023-04-28T10:03:45;68818.56;;;14.79;69.52
36354;BME280;22383;51.114;13.666;2023-04-28T10:06:12;68829.75;;;14.86;68.53
36354;BME280;22383;51.114;13.666;2023-04-28T10:08:46;68849.50;;;15.02;70.33
36354;BME280;22383;51.114;13.666;2023-04-28T10:11:17;68842.09;;;14.95;70.90
36354;BME280;22383;51.114;13.666;2023-04-28T10:13:49;68846.47;;;14.97;73.35
36354;BME280;22383;51.114;13.666;2023-04-28T10:16:26;68855.19;;;15.07;78.63
36354;BME280;22383;51.114;13.666;2023-04-28T10:18:56;68844.38;;;14.97;89.09
36354;BME280;22383;51.114;13.666;2023-04-28T10:21:31;68854.44;;;15.04;87.65
36354;BME280;22383;51.114;13.666;2023-04-28T10:24:17;68800.00;;;14.57;81.71
36354;BME280;22383;51.114;13.666;2023-04-28T10:27:01;68751.84;;;14.16;84.88
36354;BME280;22383;51.114;13.666;2023-04-28T10:29:35;68712.06;;;13.80;95.01
36354;BME280;22383;51.114;13.666;2023-04-28T10:32:22;68709.44;;;13.73;100.00
36354;BME280;22383;51.114;13.666;2023-04-28T10:38:09;68642.91;;;13.20;100.00
36354;BME280;22383;51.114;13.666;2023-04-28T10:40:58;68620.00;;;12.97;100.00
36354;BME280;22383;51.114;13.666;2023-04-28T10:45:59;68579.50;;;12.58;100.00
36354;BME280;22383;51.114;13.666;2023-04-28T10:56:21;68488.84;;;11.78;100.00
36354;BME280;22383;51.114;13.666;2023-04-28T10:58:54;68504.34;;;11.87;100.00
36354;BME280;22383;51.114;13.666;2023-04-28T11:03:56;68509.13;;;11.94;100.00
36354;BME280;22383;51.114;13.666;2023-04-28T11:11:39;68528.97;;;12.05;100.00
36354;BME280;22383;51.114;13.666;2023-04-28T11:16:55;68538.06;;;12.20;100.00
36354;BME280;22383;51.114;13.666;2023-04-28T11:19:43;68555.06;;;12.36;100.00
36354;BME280;22383;51.114;13.666;2023-04-28T11:22:22;68565.69;;;12.43;100.00
36354;BME280;22383;51.114;13.666;2023-04-28T11:25:01;68559.25;;;12.42;100.00
36354;BME280;22383;51.114;13.666;2023-04-28T11:27:33;68526.13;;;12.09;100.00
36354;BME280;22383;51.114;13.666;2023-04-28T11:30:27;68533.72;;;12.12;100.00
36354;BME280;22383;51.114;13.666;2023-04-28T11:32:56;68513.09;;;11.98;100.00
36354;BME280;22383;51.114;13.666;2023-04-28T11:35:40;68482.97;;;11.70;100.00
36354;BME280;22383;51.114;13.666;2023-04-28T11:38:07;68492.44;;;11.77;100.00
36354;BME280;22383;51.114;13.666;2023-04-28T11:40:37;68486.94;;;11.74;100.00
36354;BME280;22383;51.114;13.666;2023-04-28T11:43:04;68475.78;;;11.66;100.00
36354;BME280;22383;51.114;13.666;2023-04-28T11:45:32;68483.53;;;11.71;100.00
36354;BME280;22383;51.114;13.666;2023-04-28T11:48:00;68487.88;;;11.72;100.00
36354;BME280;22383;51.114;13.666;2023-04-28T11:50:36;68485.63;;;11.70;100.00
36354;BME280;22383;51.114;13.666;2023-04-28T11:53:03;68494.31;;;11.81;100.00
36354;BME280;22383;51.114;13.666;2023-04-28T11:55:34;68491.69;;;11.81;100.00
36354;BME280;22383;51.114;13.666;2023-04-28T11:58:20;68491.13;;;11.80;100.00
36354;BME280;22383;51.114;13.666;2023-04-28T12:01:23;68504.19;;;11.92;100.00
36354;BME280;22383;51.114;13.666;2023-04-28T12:03:50;68525.75;;;12.12;100.00
36354;BME280;22383;51.114;13.666;2023-04-28T12:06:18;68540.31;;;12.22;100.00
36354;BME280;22383;51.114;13.666;2023-04-28T12:08:45;68532.75;;;12.20;100.00
36354;BME280;22383;51.114;13.666;2023-04-28T12:11:18;68563.97;;;12.48;100.00
36354;BME280;22383;51.114;13.666;2023-04-28T12:14:07;68581.19;;;12.59;100.00
36354;BME280;22383;51.114;13.666;2023-04-28T12:16:39;68581.97;;;12.62;100.00
36354;BME280;22383;51.114;13.666;2023-04-28T12:19:12;68584.63;;;12.62;100.00
36354;BME280;22383;51.114;13.666;2023-04-28T12:21:41;68598.59;;;12.73;100.00
36354;BME280;22383;51.114;13.666;2023-04-28T12:24:16;68603.94;;;12.80;100.00
36354;BME280;22383;51.114;13.666;2023-04-28T12:26:43;68591.03;;;12.71;100.00
36354;BME280;22383;51.114;13.666;2023-04-28T12:29:39;68567.19;;;12.49;100.00
36354;BME280;22383;51.114;13.666;2023-04-28T12:32:09;68608.66;;;12.79;100.00
36354;BME280;22383;51.114;13.666;2023-04-28T12:34:38;68601.28;;;12.80;100.00
36354;BME280;22383;51.114;13.666;2023-04-28T12:37:08;68576.09;;;12.55;100.00
36354;BME280;22383;51.114;13.666;2023-04-28T12:39:36;68556.41;;;12.39;100.00
36354;BME280;22383;51.114;13.666;2023-04-28T12:42:06;68553.56;;;12.37;100.00
36354;BME280;22383;51.114;13.666;2023-04-28T12:44:36;68547.13;;;12.28;100.00
36354;BME280;22383;51.114;13.666;2023-04-28T12:47:07;68546.19;;;12.30;100.00
36354;BME280;22383;51.114;13.666;2023-04-28T12:49:38;68564.16;;;12.44;100.00
36354;BME280;22383;51.114;13.666;2023-04-28T12:52:05;68590.47;;;12.70;100.00
36354;BME280;22383;51.114;13.666;2023-04-28T12:54:33;68575.69;;;12.57;100.00
36354;BME280;22383;51.114;13.666;2023-04-28T12:57:04;68579.31;;;12.55;100.00
36354;BME280;22383;51.114;13.666;2023-04-28T12:59:35;68555.66;;;12.36;100.00
36354;BME280;22383;51.114;13.666;2023-04-28T13:02:02;68565.69;;;12.50;100.00
36354;BME280;22383;51.114;13.666;2023-04-28T13:04:30;68563.22;;;12.45;100.00
36354;BME280;22383;51.114;13.666;2023-04-28T13:06:58;68559.44;;;12.37;100.00
36354;BME280;22383;51.114;13.666;2023-04-28T13:09:30;68570.41;;;12.49;100.00
36354;BME280;22383;51.114;13.666;2023-04-28T13:12:01;68549.59;;;12.26;100.00
36354;BME280;22383;51.114;13.666;2023-04-28T13:14:29;68501.31;;;11.89;100.00
36354;BME280;22383;51.114;13.666;2023-04-28T13:17:04;68434.94;;;11.29;100.00
36354;BME280;22383;51.114;13.666;2023-04-28T13:19:33;68429.66;;;11.22;100.00
36354;BME280;22383;51.114;13.666;2023-04-28T13:22:00;68427.97;;;11.21;100.00
36354;BME280;22383;51.114;13.666;2023-04-28T13:24:36;68439.66;;;11.29;100.00
36354;BME280;22383;51.114;13.666;2023-04-28T13:27:05;68431.00;;;11.19;100.00